Time;durP1;ratioP1;P1;durP2;ratioP2;P2;SDS_P1;SDS_P2;PMS_P1;PMS_P2;Temp;Humidity;BMP_temperature;BMP_pressure;BME280_temperature;BME280_humidity;BME280_pressure;Samples;Min_cycle;Max_cycle;Signal;HPM_P1;HPM_P2
2023/03/30 00:01:33;;;;;;;;;;;12.60;99.90;;;;;;5120204;28;19908;-60
2023/03/30 00:03:59;;;;;;;;;;;12.60;99.90;;;;;;5120637;28;19908;-60
2023/03/30 00:06:25;;;;;;;;;;;12.60;99.90;;;;;;5120124;28;20329;-60
2023/03/30 00:08:52;;;;;;;;;;;12.60;99.90;;;;;;5119820;28;19908;-60
2023/03/30 00:11:17;;;;;;;;;;;12.60;99.90;;;;;;5120061;28;19908;-60
2023/03/30 00:13:43;;;;;;;;;;;12.60;99.90;;;;;;5120122;28;19908;-60
2023/03/30 00:16:11;;;;;;;;;;;12.60;99.90;;;;;;5119835;28;19908;-60
2023/03/30 00:18:38;;;;;;;;;;;12.50;99.90;;;;;;5120081;28;20459;-60
2023/03/30 00:21:04;;;;;;;;;;;12.50;99.90;;;;;;5119681;28;20332;-60
2023/03/30 00:23:31;;;;;;;;;;;12.50;99.90;;;;;;5120042;28;19908;-59
2023/03/30 00:25:56;;;;;;;;;;;12.50;99.90;;;;;;5119039;28;20302;-59
2023/03/30 00:28:22;;;;;;;;;;;12.50;99.90;;;;;;5119778;28;19912;-60
2023/03/30 00:30:48;;;;;;;;;;;12.60;99.90;;;;;;5119796;28;19911;-60
2023/03/30 00:33:14;;;;;;;;;;;12.50;99.90;;;;;;5119796;28;19956;-60
2023/03/30 00:35:40;;;;;;;;;;;12.70;99.90;;;;;;5119478;28;19969;-59
2023/03/30 00:38:06;;;;;;;;;;;12.50;99.90;;;;;;5119538;28;19908;-60
2023/03/30 00:40:33;;;;;;;;;;;12.50;99.90;;;;;;5119369;28;19990;-60
2023/03/30 00:43:06;;;;;;;;;;;12.50;99.90;;;;;;5119541;28;20282;-60
2023/03/30 00:45:35;;;;;;;;;;;12.50;99.90;;;;;;5119291;28;20367;-60
2023/03/30 00:48:03;;;;;;;;;;;12.60;99.90;;;;;;5119112;28;20366;-60
2023/03/30 00:50:50;;;;;;;;;;;12.60;99.90;;;;;;5119229;28;20260;-59
2023/03/30 00:53:19;;;;;;;;;;;12.50;99.90;;;;;;5119652;28;19911;-60
2023/03/30 00:55:46;;;;;;;;;;;12.50;99.90;;;;;;5119295;28;19923;-60
2023/03/30 00:58:13;;;;;;;;;;;12.60;99.90;;;;;;5119720;28;19908;-60
2023/03/30 01:00:39;;;;;;;;;;;12.50;99.90;;;;;;5119013;28;20333;-60
2023/03/30 01:03:13;;;;;;;;;;;12.40;99.90;;;;;;5119213;28;19978;-60
2023/03/30 01:05:41;;;;;;;;;;;12.30;99.90;;;;;;5118731;28;20400;-60
2023/03/30 01:08:07;;;;;;;;;;;12.40;99.90;;;;;;5118898;28;20378;-60
2023/03/30 01:10:33;;;;;;;;;;;12.40;99.90;;;;;;5118859;28;19979;-60
2023/03/30 01:12:59;;;;;;;;;;;12.40;99.90;;;;;;5119001;28;19912;-60
2023/03/30 01:15:26;;;;;;;;;;;12.30;99.90;;;;;;5118860;28;20389;-60
2023/03/30 01:18:11;;;;;;;;;;;12.30;99.90;;;;;;5118775;28;20248;-60
2023/03/30 01:21:00;;;;;;;;;;;12.40;99.90;;;;;;5118054;28;19912;-60
2023/03/30 01:23:45;;;;;;;;;;;12.40;99.90;;;;;;5118575;28;19908;-60
2023/03/30 01:26:34;;;;;;;;;;;12.40;99.90;;;;;;5118542;28;19923;-60
2023/03/30 01:29:18;;;;;;;;;;;12.30;99.90;;;;;;5089628;28;19908;-60
2023/03/30 01:32:02;;;;;;;;;;;12.30;99.90;;;;;;5118539;28;19930;-60
2023/03/30 01:34:34;;;;;;;;;;;12.30;99.90;;;;;;5118655;28;19915;-60
2023/03/30 01:36:59;;;;;;;;;;;12.30;99.90;;;;;;5118499;28;19908;-60
2023/03/30 01:39:57;;;;;;;;;;;12.40;99.90;;;;;;5117982;28;19929;-60
2023/03/30 01:42:26;;;;;;;;;;;12.30;99.90;;;;;;5084074;28;19908;-60
2023/03/30 01:45:07;;;;;;;;;;;12.40;99.90;;;;;;5118742;28;19976;-60
2023/03/30 01:47:44;;;;;;;;;;;12.30;99.90;;;;;;5118125;28;20386;-60
2023/03/30 01:50:11;;;;;;;;;;;12.30;99.90;;;;;;5118372;28;19914;-60
2023/03/30 01:52:41;;;;;;;;;;;12.30;99.90;;;;;;5118469;28;19947;-60
2023/03/30 01:55:18;;;;;;;;;;;12.20;99.90;;;;;;5118753;28;20286;-60
2023/03/30 01:57:59;;;;;;;;;;;12.30;99.90;;;;;;5118053;28;19953;-60
2023/03/30 02:00:26;;;;;;;;;;;12.40;99.90;;;;;;5118566;28;19912;-60
2023/03/30 02:02:58;;;;;;;;;;;12.20;99.90;;;;;;5118291;28;19908;-60
2023/03/30 02:05:26;;;;;;;;;;;12.40;99.90;;;;;;5118387;28;19908;-60
2023/03/30 02:07:54;;;;;;;;;;;12.40;99.90;;;;;;5117936;28;19912;-60
2023/03/30 02:10:22;;;;;;;;;;;12.40;99.90;;;;;;5118300;28;19908;-60
2023/03/30 02:12:48;;;;;;;;;;;12.40;99.90;;;;;;5118381;28;19908;-60
2023/03/30 02:15:15;;;;;;;;;;;12.40;99.90;;;;;;5118283;28;19908;-60
2023/03/30 02:17:44;;;;;;;;;;;12.40;99.90;;;;;;5118515;28;19907;-60
2023/03/30 02:20:11;;;;;;;;;;;12.40;99.90;;;;;;5118112;28;19912;-60
2023/03/30 02:22:37;;;;;;;;;;;12.40;99.90;;;;;;5118035;28;19908;-60
2023/03/30 02:25:05;;;;;;;;;;;12.30;99.90;;;;;;5099709;28;20016;-60
2023/03/30 02:27:31;;;;;;;;;;;12.30;99.90;;;;;;5117677;28;19919;-60
2023/03/30 02:29:57;;;;;;;;;;;12.30;99.90;;;;;;5117888;28;19992;-60
2023/03/30 02:32:32;;;;;;;;;;;12.30;99.90;;;;;;5118154;28;19937;-60
2023/03/30 02:35:07;;;;;;;;;;;12.30;99.90;;;;;;5117938;28;19908;-60
2023/03/30 02:37:36;;;;;;;;;;;12.20;99.90;;;;;;5118078;28;20359;-60
2023/03/30 02:40:06;;;;;;;;;;;12.20;99.90;;;;;;5117795;28;19911;-60
2023/03/30 02:42:38;;;;;;;;;;;12.30;99.90;;;;;;5117584;28;19919;-60
2023/03/30 02:45:23;;;;;;;;;;;12.20;99.90;;;;;;5118028;28;19916;-60
2023/03/30 02:47:52;;;;;;;;;;;12.20;99.90;;;;;;5117550;28;19907;-60
2023/03/30 02:50:36;;;;;;;;;;;12.20;99.90;;;;;;5120704;28;19911;-60
2023/03/30 02:53:09;;;;;;;;;;;12.20;99.90;;;;;;5121639;28;19914;-60
2023/03/30 02:55:44;;;;;;;;;;;12.30;99.90;;;;;;5121460;28;20393;-60
2023/03/30 02:58:16;;;;;;;;;;;12.20;99.90;;;;;;5121524;28;19907;-60
2023/03/30 03:00:41;;;;;;;;;;;12.30;99.90;;;;;;5121752;28;19933;-60
2023/03/30 03:03:15;;;;;;;;;;;12.20;99.90;;;;;;5121234;28;20362;-60
2023/03/30 03:05:42;;;;;;;;;;;12.20;99.90;;;;;;5121495;28;19908;-60
2023/03/30 03:08:08;;;;;;;;;;;12.20;99.90;;;;;;5121854;28;19907;-60
2023/03/30 03:10:35;;;;;;;;;;;12.20;99.90;;;;;;5121087;28;19915;-60
2023/03/30 03:13:01;;;;;;;;;;;12.10;99.90;;;;;;5120996;28;19908;-60
2023/03/30 03:15:27;;;;;;;;;;;12.10;99.90;;;;;;5121347;28;19915;-60
2023/03/30 03:17:53;;;;;;;;;;;12.00;99.90;;;;;;5121139;28;19918;-60
2023/03/30 03:20:19;;;;;;;;;;;12.20;99.90;;;;;;5120990;28;20371;-60
2023/03/30 03:22:45;;;;;;;;;;;12.00;99.90;;;;;;5121487;28;20259;-60
2023/03/30 03:25:10;;;;;;;;;;;12.00;99.90;;;;;;5120953;28;19908;-60
2023/03/30 03:27:36;;;;;;;;;;;12.10;99.90;;;;;;5120677;28;19920;-60
2023/03/30 03:30:02;;;;;;;;;;;12.10;99.90;;;;;;5120622;28;19919;-60
2023/03/30 03:32:28;;;;;;;;;;;12.30;99.90;;;;;;5120834;28;19912;-60
2023/03/30 03:34:54;;;;;;;;;;;12.10;99.90;;;;;;5120691;28;20259;-60
2023/03/30 03:37:20;;;;;;;;;;;12.20;99.90;;;;;;5120773;28;19998;-60
2023/03/30 03:39:45;;;;;;;;;;;12.10;99.90;;;;;;5120556;28;19912;-60
2023/03/30 03:42:11;;;;;;;;;;;12.20;99.90;;;;;;5120815;28;19907;-60
2023/03/30 03:44:39;;;;;;;;;;;12.20;99.90;;;;;;5120580;28;19908;-60
2023/03/30 03:47:05;;;;;;;;;;;12.10;99.90;;;;;;5121337;28;19915;-60
2023/03/30 03:49:31;;;;;;;;;;;12.30;99.90;;;;;;5120232;28;20367;-60
2023/03/30 03:51:56;;;;;;;;;;;12.20;99.90;;;;;;5120467;28;19914;-60
2023/03/30 03:54:22;;;;;;;;;;;12.20;99.90;;;;;;5120680;28;19912;-60
2023/03/30 03:56:47;;;;;;;;;;;12.20;99.90;;;;;;5120356;28;20004;-60
2023/03/30 03:59:13;;;;;;;;;;;12.20;99.90;;;;;;5120682;28;19908;-60
2023/03/30 04:01:39;;;;;;;;;;;12.20;99.90;;;;;;5119429;28;19961;-60
2023/03/30 04:04:04;;;;;;;;;;;12.20;99.90;;;;;;5120267;28;19915;-60
2023/03/30 04:06:30;;;;;;;;;;;12.10;99.90;;;;;;5120093;28;19915;-60
2023/03/30 04:08:56;;;;;;;;;;;12.20;99.90;;;;;;5120248;28;20002;-60
2023/03/30 04:11:21;;;;;;;;;;;12.10;99.90;;;;;;5119866;28;19931;-60
2023/03/30 04:13:47;;;;;;;;;;;12.20;99.90;;;;;;5120254;28;20002;-60
2023/03/30 04:16:12;;;;;;;;;;;12.20;99.90;;;;;;5119921;28;20263;-60
2023/03/30 04:18:40;;;;;;;;;;;12.10;99.90;;;;;;5119713;28;19908;-60
2023/03/30 04:21:06;;;;;;;;;;;12.20;99.90;;;;;;5120282;28;19943;-60
2023/03/30 04:23:33;;;;;;;;;;;12.20;99.90;;;;;;5119814;28;20274;-60
2023/03/30 04:26:03;;;;;;;;;;;12.20;99.90;;;;;;5119366;28;19927;-60
2023/03/30 04:28:30;;;;;;;;;;;12.20;99.90;;;;;;5119343;28;20241;-60
2023/03/30 04:30:59;;;;;;;;;;;12.20;99.90;;;;;;5119783;28;19911;-60
2023/03/30 04:33:25;;;;;;;;;;;12.20;99.90;;;;;;5119748;28;20383;-60
2023/03/30 04:35:51;;;;;;;;;;;12.20;99.90;;;;;;5119637;28;19931;-60
2023/03/30 04:38:21;;;;;;;;;;;12.20;99.90;;;;;;5119808;28;20340;-60
2023/03/30 04:40:50;;;;;;;;;;;12.20;99.90;;;;;;5119421;28;19911;-60
2023/03/30 04:43:18;;;;;;;;;;;12.20;99.90;;;;;;5119618;28;20426;-60
2023/03/30 04:46:02;;;;;;;;;;;12.20;99.90;;;;;;5119218;28;19908;-60
2023/03/30 04:48:28;;;;;;;;;;;12.10;99.90;;;;;;5119171;28;20317;-60
2023/03/30 04:50:54;;;;;;;;;;;12.10;99.90;;;;;;5119454;28;19914;-60
2023/03/30 04:53:21;;;;;;;;;;;12.10;99.90;;;;;;5119278;28;19908;-60
2023/03/30 04:55:48;;;;;;;;;;;12.10;99.90;;;;;;5119047;28;20275;-60
2023/03/30 04:58:14;;;;;;;;;;;12.00;99.90;;;;;;5119333;28;20389;-60
2023/03/30 05:00:40;;;;;;;;;;;12.00;99.90;;;;;;5118923;28;19964;-60
2023/03/30 05:03:05;;;;;;;;;;;12.00;99.90;;;;;;5118969;28;20007;-60
2023/03/30 05:05:31;;;;;;;;;;;12.00;99.90;;;;;;5119200;28;20248;-60
2023/03/30 05:07:57;;;;;;;;;;;12.00;99.90;;;;;;5119104;28;19907;-60
2023/03/30 05:10:23;;;;;;;;;;;12.00;99.90;;;;;;5119376;28;19912;-60
2023/03/30 05:12:48;;;;;;;;;;;12.00;99.90;;;;;;5119004;28;19908;-60
2023/03/30 05:15:14;;;;;;;;;;;12.00;99.90;;;;;;5118780;28;19953;-60
2023/03/30 05:17:40;;;;;;;;;;;12.00;99.90;;;;;;5119035;28;20068;-60
2023/03/30 05:20:09;;;;;;;;;;;12.10;99.90;;;;;;5118579;28;19989;-60
2023/03/30 05:22:35;;;;;;;;;;;12.10;99.90;;;;;;5118508;28;19912;-61
2023/03/30 05:25:01;;;;;;;;;;;12.10;99.90;;;;;;5118885;28;19914;-61
2023/03/30 05:27:27;;;;;;;;;;;12.10;99.90;;;;;;5118503;28;19920;-60
2023/03/30 05:29:53;;;;;;;;;;;12.20;99.90;;;;;;5118815;28;20291;-61
2023/03/30 05:32:18;;;;;;;;;;;12.20;99.90;;;;;;5118550;28;20297;-60
2023/03/30 05:34:45;;;;;;;;;;;12.20;99.90;;;;;;5118706;28;20337;-60
2023/03/30 05:37:11;;;;;;;;;;;12.10;99.90;;;;;;5118566;28;19907;-60
2023/03/30 05:39:36;;;;;;;;;;;12.10;99.90;;;;;;5118559;28;19916;-61
2023/03/30 05:42:02;;;;;;;;;;;12.00;99.90;;;;;;5118665;28;19912;-60
2023/03/30 05:44:28;;;;;;;;;;;12.00;99.90;;;;;;5118362;28;19907;-61
2023/03/30 05:46:54;;;;;;;;;;;12.00;99.90;;;;;;5118733;28;19957;-61
2023/03/30 05:49:19;;;;;;;;;;;12.00;99.90;;;;;;5118284;28;19915;-61
2023/03/30 05:51:45;;;;;;;;;;;12.00;99.90;;;;;;5118485;28;19953;-60
2023/03/30 05:54:12;;;;;;;;;;;12.10;99.90;;;;;;5118141;28;20288;-61
2023/03/30 05:56:38;;;;;;;;;;;12.10;99.90;;;;;;5118475;28;19908;-61
2023/03/30 05:59:04;;;;;;;;;;;12.10;99.90;;;;;;5118135;28;19908;-61
2023/03/30 06:01:30;;;;;;;;;;;12.10;99.90;;;;;;5118598;28;19919;-60
2023/03/30 06:03:55;;;;;;;;;;;12.10;99.90;;;;;;5099997;28;19911;-61
2023/03/30 06:06:21;;;;;;;;;;;12.00;99.90;;;;;;5118274;28;20392;-61
2023/03/30 06:08:48;;;;;;;;;;;12.20;99.90;;;;;;5118406;28;19915;-61
2023/03/30 06:11:14;;;;;;;;;;;12.20;99.90;;;;;;5118245;28;19941;-61
2023/03/30 06:13:39;;;;;;;;;;;12.20;99.90;;;;;;5118352;28;19908;-61
2023/03/30 06:16:05;;;;;;;;;;;12.20;99.90;;;;;;5118372;28;19908;-60
2023/03/30 06:18:31;;;;;;;;;;;12.20;99.90;;;;;;5118198;28;19908;-61
2023/03/30 06:20:56;;;;;;;;;;;12.20;99.90;;;;;;5118225;28;20405;-61
2023/03/30 06:23:22;;;;;;;;;;;12.20;99.90;;;;;;5117840;28;19912;-61
2023/03/30 06:25:51;;;;;;;;;;;12.20;99.90;;;;;;5125952;27;19986;-61
2023/03/30 06:28:20;;;;;;;;;;;12.30;99.90;;;;;;5121703;28;20065;-60
2023/03/30 06:30:47;;;;;;;;;;;12.30;99.90;;;;;;5122218;28;19908;-60
2023/03/30 06:33:17;;;;;;;;;;;12.30;99.90;;;;;;5122049;28;19919;-60
2023/03/30 06:35:43;;;;;;;;;;;12.20;99.90;;;;;;5121853;28;20007;-61
2023/03/30 06:38:09;;;;;;;;;;;12.30;99.90;;;;;;5121995;28;19908;-61
2023/03/30 06:40:34;;;;;;;;;;;12.30;99.90;;;;;;5121748;28;20429;-60
2023/03/30 06:43:00;;;;;;;;;;;12.40;99.90;;;;;;5119623;28;19908;-61
2023/03/30 06:45:26;;;;;;;;;;;12.30;99.90;;;;;;5120560;28;19907;-61
2023/03/30 06:47:52;;;;;;;;;;;12.50;99.90;;;;;;5119131;27;19908;-61
2023/03/30 06:50:18;;;;;;;;;;;12.30;99.90;;;;;;5121811;28;20395;-61
2023/03/30 06:52:43;;;;;;;;;;;12.40;99.90;;;;;;5121580;28;19915;-60
2023/03/30 06:55:09;;;;;;;;;;;12.30;99.90;;;;;;5121667;28;20374;-60
2023/03/30 06:57:35;;;;;;;;;;;12.30;99.90;;;;;;5121523;28;20283;-60
2023/03/30 07:00:00;;;;;;;;;;;12.30;99.90;;;;;;5121653;28;19918;-60
2023/03/30 07:02:26;;;;;;;;;;;12.40;99.90;;;;;;5121728;28;19908;-60
2023/03/30 07:04:51;;;;;;;;;;;12.40;99.90;;;;;;5121679;28;20049;-60
2023/03/30 07:07:17;;;;;;;;;;;12.50;99.90;;;;;;5121670;28;19908;-60
2023/03/30 07:09:43;;;;;;;;;;;12.40;99.90;;;;;;5121321;28;19956;-60
2023/03/30 07:12:08;;;;;;;;;;;12.40;99.90;;;;;;5120456;28;19952;-60
2023/03/30 07:14:34;;;;;;;;;;;12.40;99.90;;;;;;5121032;28;19951;-60
2023/03/30 07:17:00;;;;;;;;;;;12.40;99.90;;;;;;5121022;28;19907;-60
2023/03/30 07:19:25;;;;;;;;;;;12.50;99.90;;;;;;5121182;28;19908;-60
2023/03/30 07:21:51;;;;;;;;;;;12.40;99.90;;;;;;5121353;28;19908;-60
2023/03/30 07:24:16;;;;;;;;;;;12.50;99.90;;;;;;5120958;28;19914;-60
2023/03/30 07:26:42;;;;;;;;;;;12.50;99.90;;;;;;5120940;28;19927;-60
2023/03/30 07:29:08;;;;;;;;;;;12.50;99.90;;;;;;5121070;28;20294;-60
2023/03/30 07:31:33;;;;;;;;;;;12.60;99.90;;;;;;5120887;28;19991;-60
2023/03/30 07:33:59;;;;;;;;;;;12.60;99.90;;;;;;5121189;28;20323;-60
2023/03/30 07:36:25;;;;;;;;;;;12.60;99.90;;;;;;5119466;28;19915;-60
2023/03/30 07:38:50;;;;;;;;;;;12.70;99.90;;;;;;5119527;28;19908;-60
2023/03/30 07:41:17;;;;;;;;;;;12.80;99.90;;;;;;5120483;28;19971;-60
2023/03/30 07:43:43;;;;;;;;;;;12.90;99.90;;;;;;5120515;28;19912;-60
2023/03/30 07:46:10;;;;;;;;;;;12.90;99.90;;;;;;5120213;28;19915;-60
2023/03/30 07:48:36;;;;;;;;;;;13.00;99.90;;;;;;5120180;28;20382;-60
2023/03/30 07:51:05;;;;;;;;;;;12.90;99.90;;;;;;5120422;28;19962;-60
2023/03/30 07:53:31;;;;;;;;;;;13.00;99.90;;;;;;5120184;28;20274;-60
2023/03/30 07:55:57;;;;;;;;;;;13.00;99.90;;;;;;5120567;28;19908;-60
2023/03/30 07:58:22;;;;;;;;;;;13.00;99.90;;;;;;5120280;28;19911;-60
2023/03/30 08:00:48;;;;;;;;;;;13.00;99.90;;;;;;5120590;28;19912;-60
2023/03/30 08:03:14;;;;;;;;;;;13.10;99.90;;;;;;5120384;28;19972;-60
2023/03/30 08:05:40;;;;;;;;;;;13.10;99.90;;;;;;5120337;28;20037;-60
2023/03/30 08:08:06;;;;;;;;;;;13.10;99.90;;;;;;5120522;28;19961;-60
2023/03/30 08:10:32;;;;;;;;;;;13.10;99.90;;;;;;5120069;28;19962;-60
2023/03/30 08:12:58;;;;;;;;;;;13.20;99.90;;;;;;5119878;28;19915;-60
2023/03/30 08:15:24;;;;;;;;;;;13.30;99.90;;;;;;5120386;28;20007;-60
2023/03/30 08:17:50;;;;;;;;;;;13.40;99.90;;;;;;5119864;28;19911;-60
2023/03/30 08:20:15;;;;;;;;;;;13.30;99.90;;;;;;5120167;28;19926;-59
2023/03/30 08:22:41;;;;;;;;;;;13.40;99.90;;;;;;5119772;28;19915;-59
2023/03/30 08:25:08;;;;;;;;;;;13.30;99.90;;;;;;5119716;28;19908;-60
2023/03/30 08:27:33;;;;;;;;;;;13.30;99.90;;;;;;5119196;28;19923;-59
2023/03/30 08:29:59;;;;;;;;;;;13.40;99.90;;;;;;5119809;28;19915;-60
2023/03/30 08:32:25;;;;;;;;;;;13.40;99.90;;;;;;5119509;28;19974;-60
2023/03/30 08:34:52;;;;;;;;;;;13.40;99.90;;;;;;5119570;28;19952;-60
2023/03/30 08:37:18;;;;;;;;;;;13.50;99.90;;;;;;5120312;28;19912;-60
2023/03/30 08:39:44;;;;;;;;;;;13.50;99.90;;;;;;5119516;28;19916;-60
2023/03/30 08:42:10;;;;;;;;;;;13.50;99.90;;;;;;5119603;28;19908;-60
2023/03/30 08:44:37;;;;;;;;;;;13.60;99.90;;;;;;5119352;28;19915;-60
2023/03/30 08:47:05;;;;;;;;;;;13.70;99.90;;;;;;5119246;28;19955;-60
2023/03/30 08:49:34;;;;;;;;;;;13.70;99.90;;;;;;5119295;28;19915;-60
2023/03/30 08:52:02;;;;;;;;;;;13.90;99.90;;;;;;5119326;28;19907;-60
2023/03/30 08:54:28;;;;;;;;;;;13.80;99.90;;;;;;5119557;28;19998;-60
2023/03/30 08:57:06;;;;;;;;;;;13.90;99.90;;;;;;5119331;28;19951;-60
2023/03/30 08:59:39;;;;;;;;;;;14.00;99.90;;;;;;5119198;28;19907;-60
2023/03/30 09:02:22;;;;;;;;;;;13.90;99.90;;;;;;5118905;28;19907;-60
2023/03/30 09:05:08;;;;;;;;;;;14.10;99.90;;;;;;5119657;28;19908;-60
2023/03/30 09:07:46;;;;;;;;;;;14.30;99.90;;;;;;5118433;28;19953;-60
2023/03/30 09:10:13;;;;;;;;;;;14.50;99.90;;;;;;5119297;28;19908;-60
2023/03/30 09:12:47;;;;;;;;;;;14.70;99.90;;;;;;5119118;28;19908;-60
2023/03/30 09:15:18;;;;;;;;;;;14.90;99.90;;;;;;5118924;28;19912;-60
2023/03/30 09:17:52;;;;;;;;;;;15.00;99.90;;;;;;5118816;28;19914;-60
2023/03/30 09:20:22;;;;;;;;;;;15.20;99.90;;;;;;5118986;28;20010;-60
2023/03/30 09:22:48;;;;;;;;;;;15.60;99.90;;;;;;5118973;28;19936;-60
2023/03/30 09:25:16;;;;;;;;;;;15.70;99.90;;;;;;5118767;28;19908;-60
2023/03/30 09:27:51;;;;;;;;;;;15.60;99.90;;;;;;5118281;28;20398;-60
2023/03/30 09:30:18;;;;;;;;;;;15.80;99.90;;;;;;5118962;28;19936;-60
2023/03/30 09:33:10;;;;;;;;;;;15.60;99.90;;;;;;5118628;28;19908;-61
2023/03/30 09:35:39;;;;;;;;;;;15.70;99.90;;;;;;5080322;28;19930;-60
2023/03/30 09:38:07;;;;;;;;;;;15.90;99.90;;;;;;5118481;28;19908;-60
2023/03/30 09:40:42;;;;;;;;;;;16.00;99.90;;;;;;5118474;28;19942;-60
2023/03/30 09:43:17;;;;;;;;;;;16.20;99.90;;;;;;5118846;28;19931;-61
2023/03/30 09:45:43;;;;;;;;;;;16.70;99.90;;;;;;5118504;28;19951;-61
2023/03/30 09:48:09;;;;;;;;;;;17.00;99.90;;;;;;5118374;28;19907;-60
2023/03/30 09:50:45;;;;;;;;;;;17.10;99.90;;;;;;5117957;28;19934;-61
2023/03/30 09:53:24;;;;;;;;;;;17.30;99.90;;;;;;5118411;28;19908;-61
2023/03/30 09:55:56;;;;;;;;;;;17.60;99.90;;;;;;5118180;28;20382;-60
2023/03/30 09:58:28;;;;;;;;;;;18.20;99.90;;;;;;5117964;28;19915;-60
2023/03/30 10:01:02;;;;;;;;;;;18.20;99.90;;;;;;5118079;28;20401;-60
2023/03/30 10:03:28;;;;;;;;;;;19.20;99.90;;;;;;5118250;28;19915;-60
2023/03/30 10:06:20;;;;;;;;;;;19.50;99.90;;;;;;5118402;28;19912;-61
2023/03/30 10:08:49;;;;;;;;;;;19.00;99.90;;;;;;5113784;28;19915;-61
2023/03/30 10:11:19;;;;;;;;;;;19.00;99.90;;;;;;5118108;28;19985;-60
2023/03/30 10:13:47;;;;;;;;;;;19.10;99.90;;;;;;5118404;28;19998;-60
2023/03/30 10:16:26;;;;;;;;;;;19.60;99.90;;;;;;5118372;28;19969;-61
2023/03/30 10:18:54;;;;;;;;;;;19.90;99.90;;;;;;5118302;28;19907;-61
2023/03/30 10:21:27;;;;;;;;;;;20.60;99.90;;;;;;5117968;28;20394;-61
2023/03/30 10:24:06;;;;;;;;;;;20.70;99.90;;;;;;5118145;28;20290;-61
2023/03/30 10:26:34;;;;;;;;;;;20.30;99.90;;;;;;5117790;28;20300;-60
2023/03/30 10:29:04;;;;;;;;;;;19.50;99.90;;;;;;5118371;28;19908;-61
2023/03/30 10:31:30;;;;;;;;;;;19.50;99.90;;;;;;5118221;28;19946;-61
2023/03/30 10:33:57;;;;;;;;;;;19.70;99.90;;;;;;5117966;28;20379;-60
2023/03/30 10:36:26;;;;;;;;;;;19.90;99.90;;;;;;5117739;28;20080;-60
2023/03/30 10:38:52;;;;;;;;;;;20.00;99.90;;;;;;5117924;28;20347;-60
2023/03/30 10:41:22;;;;;;;;;;;20.20;99.90;;;;;;5117998;28;19912;-61
2023/03/30 10:43:50;;;;;;;;;;;20.70;99.90;;;;;;5117881;28;19915;-60
2023/03/30 10:46:17;;;;;;;;;;;21.10;99.90;;;;;;5117871;28;19930;-61
2023/03/30 10:48:58;;;;;;;;;;;21.50;99.90;;;;;;5117664;28;19916;-61
2023/03/30 10:51:28;;;;;;;;;;;22.20;99.90;;;;;;5117828;28;19946;-61
2023/03/30 10:53:59;;;;;;;;;;;21.20;99.90;;;;;;5117977;28;19915;-61
2023/03/30 10:56:37;;;;;;;;;;;20.20;99.90;;;;;;5117756;28;19923;-61
2023/03/30 10:59:09;;;;;;;;;;;19.10;99.90;;;;;;5117871;28;19920;-61
2023/03/30 11:01:35;;;;;;;;;;;19.40;99.90;;;;;;5117848;28;20267;-60
2023/03/30 11:04:12;;;;;;;;;;;19.60;99.90;;;;;;5117806;28;19915;-60
2023/03/30 11:06:40;;;;;;;;;;;19.60;99.90;;;;;;5117961;28;19908;-61
2023/03/30 11:09:09;;;;;;;;;;;20.30;99.90;;;;;;5117821;28;19908;-60
2023/03/30 11:11:46;;;;;;;;;;;20.80;99.90;;;;;;5120828;28;19945;-60
2023/03/30 11:14:15;;;;;;;;;;;21.00;99.90;;;;;;5120948;28;19930;-60
2023/03/30 11:16:46;;;;;;;;;;;21.60;99.90;;;;;;5121160;28;19975;-60
2023/03/30 11:19:15;;;;;;;;;;;22.20;99.90;;;;;;5121121;28;19915;-61
2023/03/30 11:21:56;;;;;;;;;;;22.10;99.90;;;;;;5121108;28;19912;-61
2023/03/30 11:24:23;;;;;;;;;;;22.10;99.90;;;;;;5120788;28;19907;-61
2023/03/30 11:27:09;;;;;;;;;;;21.90;99.90;;;;;;5120734;28;19919;-60
2023/03/30 11:29:37;;;;;;;;;;;22.00;99.90;;;;;;5120465;28;19960;-61
2023/03/30 11:32:05;;;;;;;;;;;21.80;99.90;;;;;;5120979;28;19912;-61
2023/03/30 11:34:38;;;;;;;;;;;21.90;99.90;;;;;;5120857;28;19908;-61
2023/03/30 11:37:19;;;;;;;;;;;21.10;99.90;;;;;;5121061;28;19947;-60
2023/03/30 11:39:51;;;;;;;;;;;21.30;99.90;;;;;;5120510;28;20049;-61
2023/03/30 11:42:28;;;;;;;;;;;21.10;99.90;;;;;;5120658;28;19908;-61
2023/03/30 11:44:54;;;;;;;;;;;21.30;99.90;;;;;;5120763;28;19907;-60
2023/03/30 11:47:23;;;;;;;;;;;20.70;99.90;;;;;;5120853;28;19908;-60
2023/03/30 11:49:49;;;;;;;;;;;21.30;99.90;;;;;;5120445;28;19956;-61
2023/03/30 11:52:23;;;;;;;;;;;21.40;99.90;;;;;;5120853;28;19994;-60
2023/03/30 11:55:03;;;;;;;;;;;21.10;99.90;;;;;;5120728;28;19965;-60
2023/03/30 11:57:38;;;;;;;;;;;21.50;99.90;;;;;;5120510;28;19908;-60
2023/03/30 12:00:10;;;;;;;;;;;20.90;99.90;;;;;;5120579;28;19912;-60
2023/03/30 12:02:35;;;;;;;;;;;20.50;99.90;;;;;;5120385;28;19970;-60
2023/03/30 12:05:23;;;;;;;;;;;19.50;99.90;;;;;;5120066;28;19908;-60
2023/03/30 12:07:49;;;;;;;;;;;18.80;99.90;;;;;;5120725;28;19908;-60
2023/03/30 12:10:34;;;;;;;;;;;18.60;99.90;;;;;;5120207;28;19929;-60
2023/03/30 12:13:01;;;;;;;;;;;18.70;99.90;;;;;;5102209;28;19908;-60
2023/03/30 12:15:33;;;;;;;;;;;19.30;99.90;;;;;;5120334;28;19908;-60
2023/03/30 12:18:08;;;;;;;;;;;18.90;99.90;;;;;;5120238;28;19908;-60
2023/03/30 12:20:43;;;;;;;;;;;18.90;99.90;;;;;;5119983;28;19916;-60
2023/03/30 12:23:21;;;;;;;;;;;19.00;99.90;;;;;;5118837;28;19912;-60
2023/03/30 12:25:56;;;;;;;;;;;19.00;99.90;;;;;;5119577;28;19915;-60
2023/03/30 12:28:23;;;;;;;;;;;18.70;99.90;;;;;;5119836;28;19956;-60
2023/03/30 12:30:52;;;;;;;;;;;18.20;99.90;;;;;;5119707;28;19915;-60
2023/03/30 12:33:19;;;;;;;;;;;17.80;99.90;;;;;;5119862;28;19907;-60
2023/03/30 12:35:44;;;;;;;;;;;17.70;99.90;;;;;;5119369;28;19908;-60
2023/03/30 12:38:15;;;;;;;;;;;17.30;99.90;;;;;;5119439;28;19908;-60
2023/03/30 12:40:47;;;;;;;;;;;17.00;99.90;;;;;;5119389;28;19911;-60
2023/03/30 12:43:13;;;;;;;;;;;16.50;99.90;;;;;;5119521;28;19986;-60
2023/03/30 12:46:01;;;;;;;;;;;16.50;99.90;;;;;;5119537;28;19908;-60
2023/03/30 12:48:45;;;;;;;;;;;16.30;99.90;;;;;;5119221;28;20341;-60
2023/03/30 12:51:20;;;;;;;;;;;16.40;99.90;;;;;;5119110;28;19912;-60
2023/03/30 12:53:54;;;;;;;;;;;16.50;99.90;;;;;;5119353;28;19936;-60
2023/03/30 12:56:39;;;;;;;;;;;16.40;99.90;;;;;;5119223;28;19915;-60
2023/03/30 12:59:05;;;;;;;;;;;16.20;99.90;;;;;;5119312;28;19929;-60
2023/03/30 13:01:49;;;;;;;;;;;16.10;99.90;;;;;;5118946;28;19916;-60
2023/03/30 13:04:20;;;;;;;;;;;16.30;99.90;;;;;;5118954;28;19973;-60
2023/03/30 13:06:49;;;;;;;;;;;16.20;99.90;;;;;;5118886;28;19908;-60
2023/03/30 13:09:14;;;;;;;;;;;16.30;99.90;;;;;;5119102;28;20321;-60
2023/03/30 13:11:44;;;;;;;;;;;15.80;99.90;;;;;;5118861;28;19952;-60
2023/03/30 13:14:25;;;;;;;;;;;15.80;99.90;;;;;;5118794;28;19915;-60
2023/03/30 13:16:54;;;;;;;;;;;15.70;99.90;;;;;;5118962;28;19908;-60
2023/03/30 13:19:23;;;;;;;;;;;15.90;99.90;;;;;;5118849;28;19912;-60
2023/03/30 13:21:54;;;;;;;;;;;15.60;99.90;;;;;;5118673;28;20014;-60
2023/03/30 13:24:23;;;;;;;;;;;15.70;99.90;;;;;;5119101;28;19954;-60
2023/03/30 13:26:49;;;;;;;;;;;15.80;99.90;;;;;;5118538;28;19920;-60
2023/03/30 13:29:16;;;;;;;;;;;15.90;99.90;;;;;;5118840;28;19908;-60
2023/03/30 13:31:46;;;;;;;;;;;15.90;99.90;;;;;;5118590;28;19915;-60
2023/03/30 13:34:32;;;;;;;;;;;16.10;99.90;;;;;;5117589;28;19908;-60
2023/03/30 13:37:16;;;;;;;;;;;16.00;99.90;;;;;;5117641;28;19908;-60
2023/03/30 13:39:41;;;;;;;;;;;15.80;99.90;;;;;;5118899;28;19908;-60
2023/03/30 13:42:10;;;;;;;;;;;15.70;99.90;;;;;;5118421;28;19999;-60
2023/03/30 13:44:36;;;;;;;;;;;15.50;99.90;;;;;;5118537;28;19940;-60
2023/03/30 13:47:10;;;;;;;;;;;15.30;99.90;;;;;;5118652;28;19915;-60
2023/03/30 13:49:50;;;;;;;;;;;15.20;99.90;;;;;;5118379;28;19916;-60
2023/03/30 13:52:18;;;;;;;;;;;15.30;99.90;;;;;;5118537;28;19943;-60
2023/03/30 13:54:45;;;;;;;;;;;15.40;99.90;;;;;;5118268;28;19915;-60
2023/03/30 13:57:12;;;;;;;;;;;15.10;99.90;;;;;;5118444;28;19930;-60
2023/03/30 13:59:42;;;;;;;;;;;15.10;99.90;;;;;;5118164;28;19965;-60
2023/03/30 14:02:11;;;;;;;;;;;15.10;99.90;;;;;;5117017;28;19916;-60
2023/03/30 14:04:37;;;;;;;;;;;15.00;99.90;;;;;;5118142;28;20284;-60
2023/03/30 14:07:24;;;;;;;;;;;14.80;99.90;;;;;;5118401;28;19965;-60
2023/03/30 14:10:08;;;;;;;;;;;14.80;99.90;;;;;;5117968;28;19908;-60
2023/03/30 14:12:34;;;;;;;;;;;14.70;99.90;;;;;;5118335;28;19947;-60
2023/03/30 14:15:00;;;;;;;;;;;14.70;99.90;;;;;;5118467;28;20290;-60
2023/03/30 14:17:26;;;;;;;;;;;14.60;99.90;;;;;;5118131;28;19912;-60
2023/03/30 14:20:02;;;;;;;;;;;14.70;99.90;;;;;;5099555;28;19930;-60
2023/03/30 14:22:28;;;;;;;;;;;14.60;99.90;;;;;;5118047;28;19915;-60
2023/03/30 14:24:55;;;;;;;;;;;14.70;99.90;;;;;;5118209;28;19912;-60
2023/03/30 14:27:21;;;;;;;;;;;14.60;99.90;;;;;;5117633;28;19926;-60
2023/03/30 14:29:47;;;;;;;;;;;14.50;99.90;;;;;;5118032;28;19908;-60